Time;durP1;ratioP1;P1;durP2;ratioP2;P2;SDS_P1;SDS_P2;PMS_P1;PMS_P2;Temp;Humidity;BMP_temperature;BMP_pressure;BME280_temperature;BME280_humidity;BME280_pressure;Samples;Min_cycle;Max_cycle;Signal;HPM_P1;HPM_P2
2022/01/27 00:01:57;;;;;;;1.60;1.40;;;3.70;98.20;;;;;;5043893;28;20474;-74
2022/01/27 00:04:31;;;;;;;1.70;1.50;;;3.70;98.20;;;;;;5033685;28;20495;-75
2022/01/27 00:06:58;;;;;;;1.70;1.60;;;3.70;98.20;;;;;;5034928;28;20621;-75
2022/01/27 00:09:42;;;;;;;1.60;1.40;;;3.60;98.20;;;;;;5031694;28;20473;-74
2022/01/27 00:12:10;;;;;;;1.70;1.50;;;3.60;98.20;;;;;;5024960;28;20553;-74
2022/01/27 00:14:45;;;;;;;1.67;1.40;;;3.70;98.20;;;;;;5020287;28;20487;-75
2022/01/27 00:17:13;;;;;;;1.73;1.63;;;3.70;98.20;;;;;;5011572;28;20493;-75
2022/01/27 00:19:40;;;;;;;1.60;1.40;;;3.60;98.20;;;;;;5017842;28;20544;-74
2022/01/27 00:22:07;;;;;;;1.60;1.40;;;3.60;98.20;;;;;;5007299;28;20485;-75
2022/01/27 00:24:36;;;;;;;1.70;1.60;;;3.60;98.20;;;;;;5018401;28;20483;-75
2022/01/27 00:27:03;;;;;;;1.70;1.40;;;3.50;98.20;;;;;;5013692;28;20565;-75
2022/01/27 00:29:30;;;;;;;1.70;1.50;;;3.50;98.20;;;;;;5016619;28;20556;-75
2022/01/27 00:31:56;;;;;;;1.70;1.50;;;3.50;98.20;;;;;;5009867;28;20486;-76
2022/01/27 00:34:23;;;;;;;1.70;1.40;;;3.40;98.20;;;;;;5017166;28;20490;-75
2022/01/27 00:36:50;;;;;;;1.60;1.30;;;3.40;98.20;;;;;;5012052;28;20489;-75
2022/01/27 00:39:18;;;;;;;1.70;1.40;;;3.40;98.20;;;;;;5035008;28;20943;-75
2022/01/27 00:41:46;;;;;;;1.70;1.40;;;3.40;98.20;;;;;;5025988;28;20482;-75
2022/01/27 00:44:14;;;;;;;1.70;1.50;;;3.40;98.20;;;;;;5039149;28;20491;-75
2022/01/27 00:46:41;;;;;;;1.67;1.43;;;3.40;98.20;;;;;;5025852;28;20482;-76
2022/01/27 00:49:08;;;;;;;2.63;2.43;;;3.40;98.20;;;;;;5052337;28;20475;-75
2022/01/27 00:51:38;;;;;;;1.70;1.50;;;3.40;98.20;;;;;;5026217;28;20576;-73
2022/01/27 00:54:08;;;;;;;1.60;1.40;;;3.40;98.20;;;;;;5037686;28;20700;-74
2022/01/27 00:56:44;;;;;;;2.00;1.80;;;3.40;98.20;;;;;;5024533;28;20550;-75
2022/01/27 00:59:28;;;;;;;1.80;1.70;;;3.40;98.20;;;;;;5040290;28;20459;-75
2022/01/27 01:02:03;;;;;;;1.67;1.47;;;3.40;98.20;;;;;;5028975;28;21137;-74
2022/01/27 01:04:34;;;;;;;1.80;1.70;;;3.40;98.20;;;;;;5036424;28;20471;-75
2022/01/27 01:07:01;;;;;;;1.70;1.40;;;3.40;98.20;;;;;;5030818;28;20653;-75
2022/01/27 01:15:11;;;;;;;1.63;1.40;;;3.40;98.20;;;;;;5032003;28;20575;-76
2022/01/27 01:17:46;;;;;;;1.67;1.40;;;3.40;98.20;;;;;;5031927;28;20519;-76
2022/01/27 01:20:34;;;;;;;1.63;1.40;;;3.40;98.20;;;;;;5029984;28;20459;-74
2022/01/27 01:31:30;;;;;;;1.63;1.30;;;3.30;98.20;;;;;;5018963;28;20478;-75
2022/01/27 01:34:13;;;;;;;1.83;1.73;;;3.30;98.20;;;;;;5036798;28;20510;-74
2022/01/27 01:36:46;;;;;;;1.60;1.40;;;3.30;98.20;;;;;;5023693;28;20562;-75
2022/01/27 01:39:14;;;;;;;2.73;2.53;;;3.30;98.20;;;;;;5038806;28;20483;-74
2022/01/27 01:41:41;;;;;;;1.70;1.47;;;3.30;98.20;;;;;;5024871;28;20493;-75
2022/01/27 01:44:08;;;;;;;1.80;1.70;;;3.30;98.20;;;;;;5044848;28;20586;-76
2022/01/27 01:46:37;;;;;;;1.70;1.50;;;3.30;98.20;;;;;;5024762;28;20488;-75
2022/01/27 01:49:05;;;;;;;1.70;1.43;;;3.30;98.20;;;;;;5039784;28;20463;-74
2022/01/27 01:51:35;;;;;;;2.63;2.43;;;3.30;98.20;;;;;;5028280;28;20869;-75
2022/01/27 01:54:02;;;;;;;1.70;1.50;;;3.30;98.20;;;;;;5046515;28;20483;-80
2022/01/27 01:56:30;;;;;;;1.70;1.53;;;3.30;98.20;;;;;;5019266;28;20869;-74
2022/01/27 01:58:57;;;;;;;1.70;1.40;;;3.30;98.20;;;;;;5020851;28;20522;-75
2022/01/27 02:01:24;;;;;;;1.60;1.30;;;3.30;98.20;;;;;;5000613;28;21159;-74
2022/01/27 02:03:53;;;;;;;1.70;1.50;;;3.30;98.20;;;;;;5032798;28;20490;-75
2022/01/27 02:06:26;;;;;;;1.70;1.50;;;3.30;98.20;;;;;;5018738;28;20490;-75
2022/01/27 02:19:55;;;;;;;1.70;1.50;;;3.30;98.20;;;;;;5007677;28;20833;-75
2022/01/27 02:22:23;;;;;;;1.70;1.50;;;3.30;98.20;;;;;;5009886;28;20479;-76
2022/01/27 02:24:51;;;;;;;1.60;1.40;;;3.30;98.20;;;;;;5009027;28;20487;-75
2022/01/27 02:27:19;;;;;;;1.67;1.40;;;3.30;98.20;;;;;;5008649;28;20570;-75
2022/01/27 02:29:47;;;;;;;1.70;1.50;;;3.40;98.20;;;;;;5013791;28;20471;-76
2022/01/27 02:32:16;;;;;;;1.70;1.40;;;3.40;98.20;;;;;;5009490;28;20541;-75
2022/01/27 02:34:43;;;;;;;1.67;1.47;;;3.40;98.20;;;;;;5014194;28;20482;-74
2022/01/27 02:37:13;;;;;;;1.63;1.40;;;3.40;98.20;;;;;;5010294;28;20487;-74
2022/01/27 02:39:40;;;;;;;1.60;1.30;;;3.40;98.20;;;;;;5013145;28;20878;-75
2022/01/27 02:42:15;;;;;;;1.63;1.40;;;3.40;98.20;;;;;;5013154;28;20479;-77
2022/01/27 02:44:56;;;;;;;1.63;1.40;;;3.40;98.20;;;;;;5017046;28;20570;-75
2022/01/27 02:47:25;;;;;;;1.70;1.40;;;3.40;98.20;;;;;;5003085;28;20475;-75
2022/01/27 02:49:52;;;;;;;1.70;1.40;;;3.40;98.20;;;;;;5004186;28;20547;-75
2022/01/27 02:52:21;;;;;;;1.70;1.60;;;3.40;98.20;;;;;;5010963;28;20891;-77
2022/01/27 02:54:49;;;;;;;1.90;1.70;;;3.40;98.20;;;;;;5016773;28;20482;-75
2022/01/27 02:57:16;;;;;;;1.63;1.50;;;3.40;98.20;;;;;;5032591;28;20509;-74
2022/01/27 02:59:43;;;;;;;1.70;1.50;;;3.40;98.20;;;;;;5041635;28;20598;-75
2022/01/27 03:02:11;;;;;;;1.80;1.70;;;3.40;98.20;;;;;;5044176;28;20473;-75
2022/01/27 03:04:39;;;;;;;1.60;1.40;;;3.40;98.20;;;;;;5033025;28;21049;-74
2022/01/27 03:07:08;;;;;;;1.70;1.50;;;3.40;98.20;;;;;;5027513;28;20809;-76
2022/01/27 03:09:37;;;;;;;1.70;1.47;;;3.40;98.20;;;;;;5041800;28;20467;-74
2022/01/27 03:12:10;;;;;;;1.63;1.40;;;3.40;98.20;;;;;;5027191;28;20572;-74
2022/01/27 03:14:38;;;;;;;1.70;1.40;;;3.40;98.20;;;;;;5031644;28;20480;-74
2022/01/27 03:17:07;;;;;;;1.60;1.40;;;3.50;98.20;;;;;;5035738;28;20481;-75
2022/01/27 03:19:37;;;;;;;1.70;1.43;;;3.40;98.20;;;;;;5048269;28;20459;-74
2022/01/27 03:22:05;;;;;;;1.60;1.50;;;3.50;98.20;;;;;;5026737;28;20927;-75
2022/01/27 03:24:33;;;;;;;1.70;1.40;;;3.50;98.20;;;;;;5041093;28;20800;-75
2022/01/27 03:27:01;;;;;;;1.70;1.60;;;3.50;98.20;;;;;;5027380;28;20533;-75
2022/01/27 03:29:28;;;;;;;1.63;1.37;;;3.50;98.20;;;;;;5035791;28;20913;-75
2022/01/27 03:31:57;;;;;;;1.60;1.40;;;3.50;98.20;;;;;;5026088;28;20853;-77
2022/01/27 03:34:24;;;;;;;1.63;1.40;;;3.50;98.20;;;;;;5035107;28;20475;-77
2022/01/27 03:36:52;;;;;;;3.50;3.20;;;3.50;98.20;;;;;;5026967;28;20478;-75
2022/01/27 03:39:22;;;;;;;1.70;1.50;;;3.50;98.20;;;;;;5036042;28;20525;-77
2022/01/27 03:41:51;;;;;;;1.67;1.47;;;3.50;98.20;;;;;;5023078;28;20490;-74
2022/01/27 03:44:20;;;;;;;1.67;1.50;;;3.50;98.20;;;;;;5035269;28;20509;-74
2022/01/27 03:46:48;;;;;;;1.70;1.40;;;3.50;98.20;;;;;;5030705;28;20580;-75
2022/01/27 03:49:16;;;;;;;2.10;1.90;;;3.40;98.20;;;;;;5039772;28;20470;-75
2022/01/27 03:51:44;;;;;;;1.70;1.50;;;3.40;98.20;;;;;;5029961;28;20503;-75
2022/01/27 03:54:11;;;;;;;1.70;1.40;;;3.40;98.20;;;;;;5047572;28;20604;-74
2022/01/27 03:56:39;;;;;;;1.70;1.40;;;3.40;98.20;;;;;;5027196;28;20485;-76
2022/01/27 03:59:06;;;;;;;1.70;1.50;;;3.40;98.20;;;;;;5041749;28;20462;-76
2022/01/27 04:01:35;;;;;;;1.80;1.70;;;3.40;98.20;;;;;;5026362;28;20992;-75
2022/01/27 04:04:02;;;;;;;1.67;1.53;;;3.40;98.20;;;;;;5041248;28;20483;-74
2022/01/27 04:06:35;;;;;;;1.70;1.50;;;3.40;98.20;;;;;;5027011;28;20485;-74
2022/01/27 04:09:05;;;;;;;1.70;1.40;;;3.40;98.20;;;;;;5041286;28;20486;-75
2022/01/27 04:11:34;;;;;;;1.70;1.50;;;3.50;98.20;;;;;;5028645;28;21032;-74
2022/01/27 04:14:02;;;;;;;1.60;1.40;;;3.50;98.20;;;;;;5037990;28;20481;-75
2022/01/27 04:16:29;;;;;;;1.70;1.50;;;3.50;98.20;;;;;;5020545;28;21001;-75
2022/01/27 04:18:57;;;;;;;1.60;1.40;;;3.50;98.20;;;;;;5049404;28;20490;-73
2022/01/27 04:21:24;;;;;;;1.70;1.50;;;3.50;98.20;;;;;;5022607;28;20537;-76
2022/01/27 04:23:51;;;;;;;1.60;1.50;;;3.50;98.20;;;;;;5041220;28;20486;-74
2022/01/27 04:26:23;;;;;;;1.70;1.60;;;3.50;98.20;;;;;;5026504;28;20543;-75
2022/01/27 04:28:52;;;;;;;1.70;1.50;;;3.60;98.20;;;;;;5040496;28;20565;-73
2022/01/27 04:31:20;;;;;;;1.70;1.40;;;3.60;98.20;;;;;;5021910;28;20552;-77
2022/01/27 04:33:48;;;;;;;1.60;1.40;;;3.60;98.20;;;;;;5042539;28;20482;-75
2022/01/27 04:36:22;;;;;;;1.70;1.47;;;3.60;98.20;;;;;;5001612;28;20476;-74
2022/01/27 04:38:55;;;;;;;1.70;1.40;;;3.60;98.20;;;;;;5003619;28;20472;-78
2022/01/27 04:41:30;;;;;;;2.27;2.07;;;3.60;98.20;;;;;;4992589;28;20947;-75
2022/01/27 04:44:04;;;;;;;1.60;1.30;;;3.60;98.20;;;;;;5015901;28;20583;-75
2022/01/27 04:46:36;;;;;;;1.60;1.40;;;3.60;98.20;;;;;;4982790;28;20480;-75
2022/01/27 04:49:06;;;;;;;1.67;1.50;;;3.70;98.20;;;;;;4990699;28;20508;-75
2022/01/27 04:51:34;;;;;;;1.60;1.30;;;3.70;98.20;;;;;;4995646;28;20879;-75
2022/01/27 04:54:06;;;;;;;2.10;1.90;;;3.70;98.20;;;;;;5005302;28;20477;-76
2022/01/27 04:56:35;;;;;;;1.60;1.40;;;3.70;98.20;;;;;;4991240;28;20479;-75
2022/01/27 04:59:07;;;;;;;1.70;1.40;;;3.70;98.20;;;;;;5037208;28;20495;-74
2022/01/27 05:01:39;;;;;;;1.70;1.60;;;3.70;98.20;;;;;;5007044;28;20557;-75
2022/01/27 05:04:10;;;;;;;1.60;1.40;;;3.70;98.20;;;;;;5023588;28;20984;-74
2022/01/27 05:06:38;;;;;;;1.60;1.30;;;3.80;98.20;;;;;;5008251;28;20789;-75
2022/01/27 05:09:05;;;;;;;1.60;1.40;;;3.80;98.20;;;;;;5020270;28;20941;-74
2022/01/27 05:11:35;;;;;;;1.63;1.40;;;3.80;98.20;;;;;;5004637;28;21014;-75
2022/01/27 05:14:09;;;;;;;1.70;1.50;;;3.80;98.20;;;;;;5019079;28;20499;-75
2022/01/27 05:16:35;;;;;;;1.70;1.40;;;3.80;98.20;;;;;;5010451;28;20478;-75
2022/01/27 05:19:04;;;;;;;1.60;1.30;;;3.80;98.20;;;;;;5020682;28;20475;-76
2022/01/27 05:21:32;;;;;;;1.63;1.50;;;3.80;98.20;;;;;;5009112;28;20961;-76
2022/01/27 05:24:01;;;;;;;1.60;1.33;;;3.90;98.20;;;;;;5019414;28;20578;-76
2022/01/27 05:26:27;;;;;;;1.60;1.30;;;3.90;98.20;;;;;;5004341;28;20490;-77
2022/01/27 05:28:54;;;;;;;1.70;1.50;;;3.90;98.20;;;;;;5017224;28;20543;-75
2022/01/27 05:31:22;;;;;;;3.00;2.77;;;3.90;98.20;;;;;;4999666;28;20486;-75
2022/01/27 05:33:48;;;;;;;1.60;1.40;;;3.90;98.20;;;;;;5019712;28;20602;-75
2022/01/27 05:36:15;;;;;;;1.70;1.43;;;3.90;98.20;;;;;;4999187;28;21303;-75
2022/01/27 05:38:43;;;;;;;1.70;1.40;;;3.90;98.20;;;;;;5034159;28;20495;-75
2022/01/27 05:41:13;;;;;;;1.70;1.50;;;4.00;98.20;;;;;;5005892;28;20492;-76
2022/01/27 05:43:40;;;;;;;1.60;1.40;;;4.00;98.20;;;;;;5027222;28;21009;-74
2022/01/27 05:46:07;;;;;;;1.60;1.40;;;4.00;98.20;;;;;;5003093;28;20460;-75
2022/01/27 05:48:34;;;;;;;4.23;3.93;;;4.00;98.20;;;;;;5017737;28;21002;-76
2022/01/27 05:51:01;;;;;;;1.60;1.30;;;4.00;98.20;;;;;;4994272;28;20488;-75
2022/01/27 05:53:30;;;;;;;1.60;1.30;;;4.10;98.20;;;;;;5010042;28;21022;-75
2022/01/27 05:55:57;;;;;;;1.70;1.40;;;4.10;98.20;;;;;;4998953;28;20460;-74
2022/01/27 05:58:26;;;;;;;1.67;1.43;;;4.10;98.20;;;;;;5009502;28;20467;-74
2022/01/27 06:00:53;;;;;;;1.60;1.30;;;4.10;98.20;;;;;;4994644;28;20467;-75
2022/01/27 06:03:20;;;;;;;1.60;1.40;;;4.10;98.20;;;;;;5016127;28;20492;-76
2022/01/27 06:05:47;;;;;;;2.13;1.97;;;4.10;98.20;;;;;;5007855;28;20491;-76
2022/01/27 06:08:14;;;;;;;1.60;1.30;;;4.20;98.20;;;;;;4996463;28;20852;-75
2022/01/27 06:10:41;;;;;;;1.60;1.30;;;4.20;98.20;;;;;;5002913;28;20468;-74
2022/01/27 06:13:08;;;;;;;1.80;1.70;;;4.20;98.20;;;;;;5010179;28;20990;-75
2022/01/27 06:15:36;;;;;;;1.60;1.40;;;4.20;98.20;;;;;;5005368;28;20484;-80
2022/01/27 06:18:03;;;;;;;1.60;1.40;;;4.30;98.20;;;;;;5012652;28;20485;-76
2022/01/27 06:20:31;;;;;;;1.60;1.30;;;4.30;98.20;;;;;;5008967;28;20460;-75
2022/01/27 06:22:58;;;;;;;1.60;1.30;;;4.40;98.20;;;;;;4993942;28;20487;-75
2022/01/27 06:25:27;;;;;;;1.60;1.33;;;4.40;98.20;;;;;;4988109;28;20496;-76
2022/01/27 06:27:54;;;;;;;1.70;1.40;;;4.50;98.20;;;;;;4991651;28;20974;-75
2022/01/27 06:30:21;;;;;;;1.67;1.47;;;4.50;98.20;;;;;;4989636;28;20502;-76
2022/01/27 06:32:49;;;;;;;1.60;1.40;;;4.50;98.20;;;;;;5004991;28;20483;-74
2022/01/27 06:35:20;;;;;;;1.60;1.30;;;4.60;98.20;;;;;;5008455;28;20476;-74
2022/01/27 06:37:49;;;;;;;1.60;1.37;;;4.70;98.20;;;;;;5017440;28;20505;-75
2022/01/27 06:40:16;;;;;;;1.60;1.30;;;4.70;98.20;;;;;;5008957;28;20551;-74
2022/01/27 06:42:44;;;;;;;1.60;1.30;;;4.80;98.20;;;;;;5011522;28;20490;-75
2022/01/27 06:45:11;;;;;;;4.80;4.40;;;4.80;98.20;;;;;;5008498;28;20597;-76
2022/01/27 06:47:38;;;;;;;1.60;1.30;;;4.80;98.20;;;;;;5007855;28;20489;-75
2022/01/27 06:50:08;;;;;;;1.70;1.37;;;4.90;98.20;;;;;;5009123;28;20467;-75
2022/01/27 06:52:34;;;;;;;1.60;1.30;;;4.90;98.20;;;;;;4996515;28;20570;-76
2022/01/27 06:55:02;;;;;;;1.67;1.30;;;5.00;98.20;;;;;;4990822;28;20478;-76
2022/01/27 06:57:33;;;;;;;1.70;1.40;;;5.10;98.20;;;;;;4992519;28;20472;-73
2022/01/27 07:00:01;;;;;;;1.60;1.30;;;5.10;98.20;;;;;;4986216;28;20464;-77
2022/01/27 07:02:28;;;;;;;1.70;1.40;;;5.10;98.20;;;;;;4992014;28;20484;-76
2022/01/27 07:04:55;;;;;;;1.60;1.30;;;5.20;98.20;;;;;;4992454;28;20599;-75
2022/01/27 07:07:23;;;;;;;1.60;1.30;;;5.20;98.20;;;;;;4993495;28;20484;-74
2022/01/27 07:09:50;;;;;;;1.60;1.40;;;5.20;98.20;;;;;;4992703;28;20461;-74
2022/01/27 07:12:17;;;;;;;1.60;1.30;;;5.20;98.20;;;;;;4996689;28;20487;-77
2022/01/27 07:14:43;;;;;;;1.60;1.30;;;5.30;98.20;;;;;;4999805;28;20564;-74
2022/01/27 07:17:12;;;;;;;1.60;1.33;;;5.30;98.20;;;;;;4988000;28;20492;-74
2022/01/27 07:19:39;;;;;;;1.63;1.30;;;5.40;98.20;;;;;;4988104;28;21176;-75
2022/01/27 07:22:06;;;;;;;1.60;1.30;;;5.40;98.20;;;;;;4994512;28;20499;-74
2022/01/27 07:24:34;;;;;;;1.67;1.40;;;5.40;98.20;;;;;;4996297;28;20862;-74
2022/01/27 07:27:01;;;;;;;1.67;1.40;;;5.40;98.20;;;;;;4994852;28;20484;-74
2022/01/27 07:29:28;;;;;;;1.70;1.40;;;5.50;98.20;;;;;;4999011;28;20469;-74
2022/01/27 07:31:56;;;;;;;1.63;1.30;;;5.50;98.20;;;;;;4989685;28;20594;-75
2022/01/27 07:34:23;;;;;;;1.67;1.30;;;5.50;98.20;;;;;;5001616;28;20504;-76
2022/01/27 07:36:54;;;;;;;1.60;1.40;;;5.50;98.20;;;;;;4991715;28;20487;-74
2022/01/27 07:39:21;;;;;;;1.70;1.40;;;5.60;98.20;;;;;;5008661;28;20515;-76
2022/01/27 07:41:51;;;;;;;1.60;1.30;;;5.60;98.20;;;;;;4994497;28;20488;-74
2022/01/27 07:44:17;;;;;;;4.83;4.47;;;5.60;98.20;;;;;;5008475;28;20588;-74
2022/01/27 07:46:44;;;;;;;1.60;1.30;;;5.60;98.20;;;;;;4990083;28;21141;-75
2022/01/27 07:49:11;;;;;;;1.63;1.40;;;5.70;98.20;;;;;;5013985;28;20466;-74
2022/01/27 07:51:38;;;;;;;1.70;1.40;;;5.70;98.20;;;;;;4994626;28;21096;-74
2022/01/27 07:54:05;;;;;;;1.60;1.30;;;5.70;98.20;;;;;;5020197;28;21095;-74
2022/01/27 07:56:32;;;;;;;1.70;1.40;;;5.70;98.20;;;;;;5000006;28;20583;-74
2022/01/27 07:59:00;;;;;;;1.60;1.30;;;5.80;98.20;;;;;;5001142;28;20496;-77
2022/01/27 08:01:27;;;;;;;1.70;1.40;;;5.80;98.20;;;;;;4991504;28;20479;-73
2022/01/27 08:03:53;;;;;;;1.60;1.27;;;5.80;98.20;;;;;;5024621;28;20938;-77
2022/01/27 08:06:20;;;;;;;1.70;1.50;;;5.80;98.20;;;;;;5005787;28;20479;-75
2022/01/27 08:08:48;;;;;;;3.37;3.10;;;5.90;98.20;;;;;;5025194;28;20479;-75
2022/01/27 08:11:15;;;;;;;1.60;1.30;;;5.90;98.20;;;;;;5003237;28;20574;-76
2022/01/27 08:13:42;;;;;;;1.70;1.40;;;5.90;98.20;;;;;;5021256;28;20491;-74
2022/01/27 08:16:10;;;;;;;1.67;1.40;;;5.90;98.20;;;;;;5003203;28;21397;-75
2022/01/27 08:18:37;;;;;;;1.60;1.30;;;5.90;98.20;;;;;;5012268;28;20993;-75
2022/01/27 08:21:04;;;;;;;1.70;1.30;;;6.00;98.20;;;;;;4999880;28;20460;-75
2022/01/27 08:23:31;;;;;;;1.60;1.30;;;6.00;98.20;;;;;;5025408;28;20579;-73
2022/01/27 08:26:04;;;;;;;1.70;1.40;;;6.00;98.20;;;;;;4999387;28;20494;-75
2022/01/27 08:28:40;;;;;;;1.60;1.30;;;6.00;98.20;;;;;;5020561;28;20496;-74
2022/01/27 08:31:07;;;;;;;1.60;1.20;;;6.00;98.20;;;;;;4999360;28;21152;-75
2022/01/27 08:33:38;;;;;;;1.67;1.40;;;6.00;98.20;;;;;;5020386;28;20570;-74
2022/01/27 08:36:05;;;;;;;1.60;1.30;;;6.00;98.20;;;;;;5000255;28;20456;-74
2022/01/27 08:38:36;;;;;;;1.93;1.73;;;6.00;98.20;;;;;;5000578;28;21000;-73
2022/01/27 08:41:04;;;;;;;1.70;1.43;;;6.10;98.20;;;;;;4980524;28;20480;-74
2022/01/27 08:43:31;;;;;;;1.60;1.20;;;6.10;98.20;;;;;;5000026;28;20884;-74
2022/01/27 08:45:59;;;;;;;1.67;1.37;;;6.10;98.20;;;;;;4978650;28;20496;-74
2022/01/27 08:48:28;;;;;;;1.60;1.30;;;6.10;98.20;;;;;;5003609;28;20473;-75
2022/01/27 08:51:00;;;;;;;1.67;1.43;;;6.10;98.20;;;;;;4978165;28;20473;-74
2022/01/27 08:53:28;;;;;;;1.70;1.60;;;6.10;98.20;;;;;;5005070;28;20528;-73
2022/01/27 08:55:54;;;;;;;1.80;1.60;;;6.00;98.20;;;;;;4971179;28;20476;-74
2022/01/27 08:58:23;;;;;;;1.80;1.70;;;6.00;98.20;;;;;;4989515;28;20472;-73
2022/01/27 09:00:50;;;;;;;1.60;1.30;;;6.00;98.20;;;;;;4975197;28;20559;-74
2022/01/27 09:03:19;;;;;;;1.60;1.30;;;6.00;98.20;;;;;;4992870;28;20485;-76
2022/01/27 09:05:45;;;;;;;1.60;1.30;;;6.00;98.20;;;;;;4978663;28;20564;-71
2022/01/27 09:08:14;;;;;;;1.63;1.30;;;5.90;98.20;;;;;;4983216;28;20689;-74
2022/01/27 09:10:41;;;;;;;1.67;1.37;;;5.90;98.20;;;;;;4975060;28;20473;-74
2022/01/27 09:13:08;;;;;;;1.60;1.30;;;5.90;98.20;;;;;;4984255;28;20480;-74
2022/01/27 09:15:35;;;;;;;1.70;1.43;;;5.90;98.20;;;;;;4980829;28;20977;-74
2022/01/27 09:18:02;;;;;;;1.70;1.43;;;5.90;98.20;;;;;;4981018;28;20479;-74
2022/01/27 09:20:30;;;;;;;1.70;1.40;;;5.90;98.20;;;;;;4976356;28;20484;-74
2022/01/27 09:22:58;;;;;;;1.60;1.30;;;5.90;98.20;;;;;;4983403;28;20483;-73
2022/01/27 09:25:31;;;;;;;1.60;1.27;;;5.90;98.20;;;;;;4980060;28;20580;-74
2022/01/27 09:28:05;;;;;;;3.57;3.30;;;5.90;98.20;;;;;;5003139;28;20485;-73
2022/01/27 09:30:32;;;;;;;1.70;1.43;;;5.90;98.20;;;;;;4996759;28;20476;-73
2022/01/27 09:32:59;;;;;;;1.70;1.50;;;5.90;98.20;;;;;;4985400;28;20483;-73
2022/01/27 09:35:27;;;;;;;1.60;1.30;;;5.90;98.20;;;;;;4975987;28;20481;-72
2022/01/27 09:37:55;;;;;;;1.60;1.30;;;5.90;98.20;;;;;;4978844;28;20952;-72
2022/01/27 09:40:22;;;;;;;1.63;1.30;;;5.90;98.20;;;;;;4976287;28;20477;-72
2022/01/27 09:42:52;;;;;;;1.60;1.30;;;5.90;98.20;;;;;;4979606;28;20488;-73
2022/01/27 09:45:20;;;;;;;1.63;1.30;;;5.90;98.20;;;;;;4976198;28;20503;-74
2022/01/27 09:47:54;;;;;;;1.80;1.53;;;5.90;98.20;;;;;;4981182;28;20882;-73
2022/01/27 09:50:34;;;;;;;1.60;1.20;;;5.90;98.20;;;;;;4973888;28;20923;-72
2022/01/27 09:53:04;;;;;;;1.60;1.30;;;5.90;98.20;;;;;;4984183;28;20484;-71
2022/01/27 09:55:35;;;;;;;1.60;1.37;;;5.90;98.20;;;;;;4971205;28;20580;-72
2022/01/27 09:58:10;;;;;;;1.60;1.30;;;5.90;98.20;;;;;;4979390;28;20857;-72
2022/01/27 10:00:41;;;;;;;1.70;1.50;;;5.90;98.20;;;;;;4977324;28;20557;-72
2022/01/27 10:03:14;;;;;;;1.67;1.30;;;5.90;98.20;;;;;;4981978;28;20893;-72
2022/01/27 10:05:48;;;;;;;1.60;1.30;;;6.00;98.20;;;;;;4972283;28;20486;-72
2022/01/27 10:08:21;;;;;;;1.60;1.20;;;6.00;98.20;;;;;;4969226;28;20508;-72
2022/01/27 10:10:54;;;;;;;1.63;1.40;;;6.00;98.20;;;;;;4973222;28;20556;-72
2022/01/27 10:13:37;;;;;;;1.67;1.40;;;6.00;98.20;;;;;;4964352;28;20477;-73
2022/01/27 10:16:09;;;;;;;1.60;1.40;;;6.10;98.20;;;;;;4971114;28;20457;-76
2022/01/27 10:18:44;;;;;;;1.67;1.33;;;6.10;98.20;;;;;;4999557;28;20470;-74
2022/01/27 10:21:14;;;;;;;1.63;1.40;;;6.10;98.20;;;;;;4968917;28;21111;-75
2022/01/27 10:23:51;;;;;;;2.83;2.63;;;6.10;98.20;;;;;;4999539;28;20610;-73
2022/01/27 10:26:23;;;;;;;1.60;1.30;;;6.10;98.20;;;;;;4972833;28;21072;-76
2022/01/27 21:19:44;;;;;;;1.70;1.47;;;6.50;98.20;;;;;;5001979;23;21055;-74
2022/01/27 21:22:11;;;;;;;1.60;1.30;;;6.50;98.20;;;;;;4990990;28;20571;-74
2022/01/27 21:24:38;;;;;;;1.70;1.40;;;6.40;98.20;;;;;;4990577;28;20463;-75
2022/01/27 21:27:05;;;;;;;1.63;1.30;;;6.40;98.20;;;;;;4987900;28;20487;-73
2022/01/27 21:29:33;;;;;;;1.63;1.30;;;6.40;98.20;;;;;;4981086;28;20493;-74
2022/01/27 21:32:00;;;;;;;1.60;1.30;;;6.40;98.20;;;;;;4968852;28;20497;-72
2022/01/27 21:34:37;;;;;;;1.70;1.40;;;6.40;98.20;;;;;;4977581;28;20816;-72
2022/01/27 21:37:06;;;;;;;1.70;1.40;;;6.30;98.20;;;;;;4972572;28;20489;-73
2022/01/27 21:39:34;;;;;;;1.60;1.30;;;6.30;98.20;;;;;;4974032;28;20937;-72
2022/01/27 21:42:01;;;;;;;1.70;1.40;;;6.30;98.20;;;;;;4965913;28;20488;-73
2022/01/27 21:44:28;;;;;;;1.70;1.40;;;6.30;98.20;;;;;;4973650;28;20497;-75
2022/01/27 21:46:55;;;;;;;1.70;1.50;;;6.30;98.20;;;;;;4968437;28;20497;-75
2022/01/27 21:49:24;;;;;;;1.70;1.43;;;6.20;98.20;;;;;;4978927;28;20486;-73
2022/01/27 21:51:51;;;;;;;1.60;1.30;;;6.20;98.20;;;;;;4966312;28;20528;-73
2022/01/27 21:54:19;;;;;;;1.67;1.30;;;6.20;98.20;;;;;;4976702;28;20494;-74
2022/01/27 21:56:47;;;;;;;1.63;1.20;;;6.20;98.20;;;;;;4966908;28;20938;-76
2022/01/27 21:59:14;;;;;;;1.63;1.30;;;6.10;98.20;;;;;;4977255;28;20568;-74
2022/01/27 22:01:41;;;;;;;1.70;1.50;;;6.10;98.20;;;;;;4968240;28;20481;-77
2022/01/27 22:04:08;;;;;;;1.67;1.30;;;6.10;98.20;;;;;;4977838;28;20469;-74
2022/01/27 22:06:35;;;;;;;1.60;1.30;;;6.20;98.20;;;;;;4965921;28;20480;-74
2022/01/27 22:09:02;;;;;;;1.70;1.40;;;6.20;98.20;;;;;;4981307;28;20495;-74
2022/01/27 22:11:31;;;;;;;1.70;1.30;;;6.20;98.20;;;;;;4958263;28;20568;-74
2022/01/27 22:13:58;;;;;;;1.70;1.37;;;6.20;98.20;;;;;;4969474;28;21002;-74
2022/01/27 22:16:25;;;;;;;1.70;1.40;;;6.20;98.20;;;;;;4958716;28;20493;-73
2022/01/27 22:18:52;;;;;;;1.60;1.30;;;6.20;98.20;;;;;;4972786;28;20711;-74
2022/01/27 22:21:19;;;;;;;1.60;1.30;;;6.20;98.20;;;;;;4959793;28;20481;-73
2022/01/27 22:23:46;;;;;;;1.70;1.50;;;6.20;98.20;;;;;;4973943;28;20854;-73
2022/01/27 22:26:13;;;;;;;1.70;1.40;;;6.20;98.20;;;;;;4955687;28;20496;-74
2022/01/27 22:28:41;;;;;;;1.63;1.37;;;6.20;98.20;;;;;;4981762;28;20994;-74
2022/01/27 22:31:08;;;;;;;1.60;1.30;;;6.20;98.20;;;;;;4960793;28;20477;-77
2022/01/27 22:33:35;;;;;;;1.70;1.50;;;6.20;98.20;;;;;;4975076;28;20584;-78
2022/01/27 22:36:05;;;;;;;1.60;1.30;;;6.20;98.20;;;;;;4953778;28;20474;-77
2022/01/27 22:38:32;;;;;;;1.60;1.30;;;6.20;98.20;;;;;;4980361;28;20480;-74
2022/01/27 22:40:59;;;;;;;1.70;1.40;;;6.20;98.20;;;;;;4961969;28;20469;-77
2022/01/27 22:43:28;;;;;;;1.67;1.40;;;6.20;98.20;;;;;;4978734;28;20466;-72
2022/01/27 22:45:57;;;;;;;1.63;1.33;;;6.20;98.20;;;;;;4958757;28;20466;-72
2022/01/27 22:48:23;;;;;;;1.67;1.33;;;6.20;98.20;;;;;;4978206;28;20795;-77
2022/01/27 22:50:50;;;;;;;1.60;1.20;;;6.20;98.20;;;;;;4960839;28;20461;-75
2022/01/27 22:53:17;;;;;;;1.70;1.30;;;6.20;98.20;;;;;;4980011;28;20473;-76
2022/01/27 22:55:44;;;;;;;1.60;1.30;;;6.20;98.20;;;;;;4965454;28;20465;-73
2022/01/27 22:58:12;;;;;;;1.67;1.30;;;6.20;98.20;;;;;;4972081;28;20990;-76
2022/01/27 23:00:41;;;;;;;1.60;1.30;;;6.20;98.20;;;;;;4965621;28;20897;-74
2022/01/27 23:03:10;;;;;;;1.60;1.30;;;6.10;98.20;;;;;;4971287;28;20481;-74
2022/01/27 23:05:39;;;;;;;1.70;1.40;;;6.10;98.20;;;;;;4966958;28;20545;-75
2022/01/27 23:08:09;;;;;;;1.63;1.30;;;6.10;98.20;;;;;;4970188;28;21229;-75
2022/01/27 23:10:36;;;;;;;1.70;1.43;;;6.10;98.20;;;;;;4966606;28;20477;-73
2022/01/27 23:13:15;;;;;;;1.60;1.30;;;6.00;98.20;;;;;;4968017;28;20488;-74
2022/01/27 23:15:57;;;;;;;1.70;1.30;;;6.00;98.20;;;;;;4965658;28;20876;-74
2022/01/27 23:18:33;;;;;;;1.60;1.37;;;5.90;98.20;;;;;;4953868;28;20490;-74
2022/01/27 23:21:08;;;;;;;1.60;1.30;;;5.90;98.20;;;;;;4957061;28;20476;-74
2022/01/27 23:23:36;;;;;;;1.60;1.37;;;5.90;98.20;;;;;;4976416;28;20469;-73
2022/01/27 23:26:19;;;;;;;1.67;1.30;;;5.80;98.20;;;;;;4958947;28;20854;-75
2022/01/27 23:28:51;;;;;;;1.60;1.30;;;5.80;98.20;;;;;;4975252;28;21071;-73
2022/01/27 23:31:28;;;;;;;1.70;1.50;;;5.80;98.20;;;;;;4958036;28;20523;-73
2022/01/27 23:33:58;;;;;;;1.60;1.30;;;5.80;98.20;;;;;;4974941;28;20469;-75
2022/01/27 23:36:30;;;;;;;1.70;1.47;;;5.70;98.20;;;;;;4960896;28;20512;-73
2022/01/27 23:39:21;;;;;;;1.63;1.30;;;5.70;98.20;;;;;;4972834;28;20485;-74
2022/01/27 23:41:52;;;;;;;1.60;1.30;;;5.70;98.20;;;;;;4963339;28;20584;-73
2022/01/27 23:44:34;;;;;;;1.63;1.30;;;5.60;98.20;;;;;;4972058;28;21319;-74
2022/01/27 23:47:15;;;;;;;1.70;1.40;;;5.60;98.20;;;;;;4965092;28;21020;-73
2022/01/27 23:49:50;;;;;;;1.60;1.30;;;5.60;98.20;;;;;;4968931;28;20572;-73
2022/01/27 23:52:24;;;;;;;1.60;1.30;;;5.60;98.20;;;;;;4963712;28;20508;-74
2022/01/27 23:55:01;;;;;;;1.67;1.30;;;5.50;98.20;;;;;;4967800;28;20466;-73
2022/01/27 23:57:33;;;;;;;1.63;1.30;;;5.50;98.20;;;;;;4970097;28;21082;-72
